Time;durP1;ratioP1;P1;durP2;ratioP2;P2;SDS_P1;SDS_P2;PMS_P1;PMS_P2;Temp;Humidity;BMP_temperature;BMP_pressure;BME280_temperature;BME280_humidity;BME280_pressure;Samples;Min_cycle;Max_cycle;Signal;HPM_P1;HPM_P2
2022/08/28 00:01:07;;;;;;;2.77;2.07;;;;;;;15.07;90.63;100561.38;4974251;28;20184;-75
2022/08/28 00:03:32;;;;;;;0.00;0.00;;;;;;;14.97;90.86;100562.59;4974012;28;20177;-75
2022/08/28 00:05:59;;;;;;;1.77;0.23;;;;;;;14.89;92.11;100567.00;4974151;28;20181;-76
2022/08/28 00:08:25;;;;;;;0.13;0.13;;;;;;;14.85;92.36;100568.03;4973604;28;20213;-74
2022/08/28 00:10:51;;;;;;;0.57;0.57;;;;;;;14.82;93.34;100564.00;4973812;28;20178;-75
2022/08/28 00:13:19;;;;;;;0.17;0.17;;;;;;;14.75;93.22;100563.72;4973907;28;20236;-76
2022/08/28 00:15:55;;;;;;;5.63;1.00;;;;;;;14.71;93.84;100570.25;4973838;28;20663;-74
2022/08/28 00:18:21;;;;;;;0.00;0.00;;;;;;;14.69;94.15;100567.84;4974058;28;20268;-76
2022/08/28 00:20:48;;;;;;;0.00;0.00;;;;;;;14.65;94.40;100560.59;4973878;28;20658;-76
2022/08/28 00:23:13;;;;;;;0.30;0.30;;;;;;;14.59;94.78;100569.03;4973608;28;20214;-76
2022/08/28 00:25:39;;;;;;;0.00;0.00;;;;;;;14.58;94.98;100561.13;4973432;28;20824;-76
2022/08/28 00:28:07;;;;;;;0.00;0.00;;;;;;;14.55;95.69;100570.03;4973779;28;20268;-76
2022/08/28 00:30:36;;;;;;;0.10;0.10;;;;;;;14.58;95.84;100572.94;4973732;28;20281;-76
2022/08/28 00:33:06;;;;;;;0.00;0.00;;;;;;;14.54;95.83;100566.50;4973607;28;20232;-76
2022/08/28 00:35:32;;;;;;;0.00;0.00;;;;;;;14.47;95.98;100571.75;4972121;28;20182;-76
2022/08/28 00:37:58;;;;;;;1.00;1.00;;;;;;;14.43;96.21;100569.94;4973330;28;20645;-77
2022/08/28 00:40:26;;;;;;;0.00;0.00;;;;;;;14.39;96.71;100563.50;4973429;28;20177;-75
2022/08/28 00:42:53;;;;;;;0.23;0.23;;;;;;;14.34;97.09;100570.00;4973628;28;20181;-76
2022/08/28 00:45:19;;;;;;;0.20;0.20;;;;;;;14.28;97.43;100568.59;4972995;28;20178;-75
2022/08/28 00:47:45;;;;;;;0.40;0.40;;;;;;;14.22;98.20;100578.97;4972085;28;20240;-76
2022/08/28 00:50:16;;;;;;;1.03;1.03;;;;;;;14.17;98.64;100575.59;4972001;28;20221;-75
2022/08/28 00:52:45;;;;;;;0.47;0.47;;;;;;;14.14;99.56;100574.31;4972900;28;20184;-76
2022/08/28 00:55:17;;;;;;;0.33;0.33;;;;;;;14.12;99.75;100575.78;4972516;28;20194;-76
2022/08/28 00:57:55;;;;;;;0.77;0.27;;;;;;;14.13;100.00;100575.47;4973027;28;20512;-76
2022/08/28 01:00:31;;;;;;;0.00;0.00;;;;;;;14.11;100.00;100575.00;4965408;28;20182;-76
2022/08/28 01:02:57;;;;;;;1.53;0.27;;;;;;;14.11;100.00;100575.00;4972830;28;20268;-75
2022/08/28 01:05:25;;;;;;;0.47;0.47;;;;;;;14.11;100.00;100569.50;4972687;28;20260;-75
2022/08/28 01:07:51;;;;;;;0.00;0.00;;;;;;;14.15;100.00;100561.38;4973044;28;20604;-76
2022/08/28 01:10:20;;;;;;;12.97;1.77;;;;;;;14.14;100.00;100566.06;4973000;28;20257;-76
2022/08/28 01:12:48;;;;;;;0.20;0.20;;;;;;;14.15;100.00;100573.19;4972774;28;20182;-77
2022/08/28 01:15:17;;;;;;;0.77;0.77;;;;;;;14.15;100.00;100573.19;4972263;28;20178;-74
2022/08/28 01:17:50;;;;;;;0.00;0.00;;;;;;;14.16;100.00;100572.03;4971513;28;20656;-76
2022/08/28 01:20:19;;;;;;;0.00;0.00;;;;;;;14.18;100.00;100572.53;4973231;28;20540;-76
2022/08/28 01:23:27;;;;;;;0.27;0.27;;;;;;;14.22;100.00;100572.66;4971356;28;20193;-77
2022/08/28 01:25:53;;;;;;;0.00;0.00;;;;;;;14.25;100.00;100575.56;4961711;28;20727;-76
2022/08/28 01:28:18;;;;;;;0.00;0.00;;;;;;;14.29;100.00;100576.50;4972586;28;20193;-76
2022/08/28 01:30:46;;;;;;;0.57;0.43;;;;;;;14.29;100.00;100572.94;4972788;28;20181;-76
2022/08/28 01:33:14;;;;;;;1.50;1.10;;;;;;;14.32;100.00;100577.78;4972569;28;20488;-73
2022/08/28 01:35:43;;;;;;;0.30;0.30;;;;;;;14.35;100.00;100574.38;4972294;28;20202;-76
2022/08/28 01:38:08;;;;;;;0.30;0.30;;;;;;;14.39;100.00;100577.25;4972338;28;20221;-76
2022/08/28 01:40:41;;;;;;;0.30;0.10;;;;;;;14.42;100.00;100582.06;4972376;28;20211;-76
2022/08/28 01:43:18;;;;;;;0.00;0.00;;;;;;;14.48;100.00;100591.78;4972445;28;20222;-77
2022/08/28 01:45:48;;;;;;;0.23;0.23;;;;;;;14.50;100.00;100587.56;4971851;28;20196;-75
2022/08/28 01:48:14;;;;;;;1.07;0.77;;;;;;;14.53;99.71;100592.38;4972217;28;20197;-77
2022/08/28 01:50:40;;;;;;;0.30;0.30;;;;;;;14.55;99.68;100594.78;4972344;28;20174;-76
2022/08/28 01:53:07;;;;;;;0.23;0.23;;;;;;;14.55;99.59;100592.03;4972096;28;20186;-74
2022/08/28 01:55:34;;;;;;;1.10;1.10;;;;;;;14.55;99.36;100589.28;4972270;28;20193;-77
2022/08/28 01:58:02;;;;;;;5.03;1.40;;;;;;;14.54;99.12;100593.19;4972412;28;20193;-76
2022/08/28 02:00:28;;;;;;;0.00;0.00;;;;;;;14.55;98.90;100601.09;4972749;28;20181;-77
2022/08/28 02:02:56;;;;;;;0.10;0.10;;;;;;;14.56;99.04;100599.16;4972483;28;20243;-77
2022/08/28 02:05:28;;;;;;;2.27;0.17;;;;;;;14.55;99.20;100587.34;4970384;28;20269;-75
2022/08/28 02:07:56;;;;;;;0.10;0.10;;;;;;;14.58;99.04;100589.41;4971977;28;20181;-76
2022/08/28 02:10:23;;;;;;;0.07;0.07;;;;;;;14.57;98.90;100593.31;4972109;28;20650;-75
2022/08/28 02:12:49;;;;;;;0.20;0.20;;;;;;;14.56;98.55;100593.66;4972013;28;20177;-77
2022/08/28 02:15:15;;;;;;;0.63;0.50;;;;;;;14.57;98.54;100598.81;4971510;28;20178;-76
2022/08/28 02:17:41;;;;;;;0.00;0.00;;;;;;;14.59;98.09;100607.53;4971968;28;20313;-77
2022/08/28 02:20:07;;;;;;;0.60;0.10;;;;;;;14.64;98.65;100611.25;4971650;28;20209;-77
2022/08/28 02:22:32;;;;;;;0.00;0.00;;;;;;;14.65;98.29;100602.66;4971587;28;20189;-76
2022/08/28 02:24:58;;;;;;;0.00;0.00;;;;;;;14.65;97.85;100594.41;4971255;28;20188;-74
2022/08/28 02:27:23;;;;;;;0.00;0.00;;;;;;;14.70;97.88;100598.91;4971735;28;20637;-77
2022/08/28 02:29:49;;;;;;;0.10;0.10;;;;;;;14.71;97.81;100593.06;4971759;28;20642;-76
2022/08/28 02:32:14;;;;;;;0.23;0.23;;;;;;;14.70;97.54;100602.44;4971689;28;20236;-76
2022/08/28 02:34:42;;;;;;;0.00;0.00;;;;;;;14.73;97.60;100600.97;4971257;28;20178;-75
2022/08/28 02:37:10;;;;;;;0.17;0.17;;;;;;;14.74;97.46;100602.56;4971498;28;20616;-77
2022/08/28 02:39:36;;;;;;;0.00;0.00;;;;;;;14.75;97.16;100593.19;4971778;28;20205;-77
2022/08/28 02:42:01;;;;;;;1.03;0.43;;;;;;;14.74;96.97;100586.88;4971472;28;20177;-75
2022/08/28 02:44:26;;;;;;;0.73;0.73;;;;;;;14.76;96.95;100590.13;4971148;28;20189;-74
2022/08/28 02:46:52;;;;;;;0.00;0.00;;;;;;;14.73;96.91;100593.53;4971563;28;20236;-76
2022/08/28 02:49:17;;;;;;;0.00;0.00;;;;;;;14.72;96.96;100586.41;4971367;28;20182;-75
2022/08/28 02:51:43;;;;;;;0.00;0.00;;;;;;;14.70;97.06;100594.19;4971462;28;20177;-76
2022/08/28 02:54:08;;;;;;;0.00;0.00;;;;;;;14.73;97.52;100599.03;4969696;28;20209;-74
2022/08/28 02:56:34;;;;;;;0.17;0.17;;;;;;;14.73;97.04;100595.47;4971658;28;20174;-75
2022/08/28 02:58:59;;;;;;;0.30;0.30;;;;;;;14.72;97.88;100597.41;4973268;28;20210;-76
2022/08/28 03:01:24;;;;;;;0.00;0.00;;;;;;;14.73;98.18;100590.75;4975870;28;20174;-76
2022/08/28 03:03:50;;;;;;;0.00;0.00;;;;;;;14.73;97.82;100592.72;4974971;28;20182;-74
2022/08/28 03:06:15;;;;;;;0.00;0.00;;;;;;;14.71;97.77;100598.56;4975073;28;20606;-76
2022/08/28 03:08:41;;;;;;;0.00;0.00;;;;;;;14.71;97.76;100593.06;4975367;28;20200;-76
2022/08/28 03:11:07;;;;;;;0.10;0.10;;;;;;;14.70;97.78;100588.69;4975313;28;20248;-75
2022/08/28 03:13:32;;;;;;;0.00;0.00;;;;;;;14.68;97.76;100585.47;4974863;28;20625;-74
2022/08/28 03:15:58;;;;;;;0.00;0.00;;;;;;;14.65;98.05;100588.91;4975594;28;20174;-76
2022/08/28 03:18:26;;;;;;;0.00;0.00;;;;;;;14.67;98.09;100592.13;4974895;28;20221;-75
2022/08/28 03:20:53;;;;;;;0.00;0.00;;;;;;;14.72;98.65;100600.16;4975267;28;20186;-76
2022/08/28 03:23:27;;;;;;;0.00;0.00;;;;;;;14.74;98.60;100600.63;4974899;28;20206;-75
2022/08/28 03:26:05;;;;;;;1.23;1.13;;;;;;;14.73;98.71;100603.72;4974842;28;20180;-75
2022/08/28 03:28:34;;;;;;;0.00;0.00;;;;;;;14.69;98.91;100603.59;4975241;28;20181;-76
2022/08/28 03:31:00;;;;;;;0.00;0.00;;;;;;;14.67;99.12;100597.63;4974883;28;20189;-76
2022/08/28 03:33:26;;;;;;;0.00;0.00;;;;;;;14.68;98.96;100601.19;4974572;28;20236;-72
2022/08/28 03:35:52;;;;;;;0.00;0.00;;;;;;;14.66;99.31;100598.75;4974645;28;20178;-76
2022/08/28 03:38:17;;;;;;;0.00;0.00;;;;;;;14.69;99.21;100605.53;4974758;28;20553;-74
2022/08/28 03:40:45;;;;;;;0.10;0.10;;;;;;;14.67;99.11;100602.31;4973431;28;20188;-76
2022/08/28 03:43:16;;;;;;;0.00;0.00;;;;;;;14.65;99.10;100597.16;4973183;28;20229;-76
2022/08/28 03:45:53;;;;;;;0.10;0.10;;;;;;;14.61;98.97;100596.22;4974465;28;20186;-75
2022/08/28 03:48:19;;;;;;;0.00;0.00;;;;;;;14.59;99.47;100596.53;4974574;28;20181;-77
2022/08/28 03:50:46;;;;;;;0.00;0.00;;;;;;;14.57;99.37;100589.75;4973032;28;20265;-74
2022/08/28 03:53:11;;;;;;;0.17;0.17;;;;;;;14.56;99.42;100599.16;4974457;28;20178;-76
2022/08/28 03:55:40;;;;;;;0.00;0.00;;;;;;;14.56;99.02;100601.91;4973814;28;20196;-75
2022/08/28 03:58:05;;;;;;;0.00;0.00;;;;;;;14.51;99.30;100602.09;4974249;28;20293;-76
2022/08/28 04:00:31;;;;;;;0.00;0.00;;;;;;;14.49;99.51;100613.44;4974318;28;20269;-74
2022/08/28 04:02:56;;;;;;;0.00;0.00;;;;;;;14.47;99.60;100621.22;4974287;28;20437;-75
2022/08/28 04:05:22;;;;;;;0.10;0.10;;;;;;;14.43;99.46;100619.41;4973884;28;20654;-75
2022/08/28 04:07:47;;;;;;;0.50;0.50;;;;;;;14.36;99.13;100616.41;4974215;28;20189;-76
2022/08/28 04:10:13;;;;;;;0.00;0.00;;;;;;;14.31;99.16;100620.13;4974331;28;20186;-74
2022/08/28 04:12:38;;;;;;;0.00;0.00;;;;;;;14.32;98.94;100616.28;4974010;28;20181;-76
2022/08/28 04:15:05;;;;;;;3.20;1.53;;;;;;;14.26;98.65;100612.88;4973703;28;20298;-74
2022/08/28 04:17:30;;;;;;;0.40;0.40;;;;;;;14.26;98.53;100612.09;4974114;28;20182;-74
2022/08/28 04:19:55;;;;;;;6.97;1.07;;;;;;;14.21;98.41;100618.59;4973926;28;20596;-75
2022/08/28 04:22:21;;;;;;;3.37;0.67;;;;;;;14.21;98.88;100624.09;4973830;28;20765;-75
2022/08/28 04:24:47;;;;;;;0.10;0.10;;;;;;;14.21;99.18;100618.59;4973529;28;20185;-75
2022/08/28 04:27:13;;;;;;;5.73;1.30;;;;;;;14.23;99.66;100621.81;4973754;28;20716;-76
2022/08/28 04:29:39;;;;;;;0.47;0.47;;;;;;;14.23;99.59;100610.81;4973781;28;20186;-74
2022/08/28 04:32:04;;;;;;;0.00;0.00;;;;;;;14.21;100.00;100613.09;4973904;28;20264;-75
2022/08/28 04:34:30;;;;;;;0.00;0.00;;;;;;;14.23;100.00;100615.50;4973332;28;20178;-74
2022/08/28 04:36:56;;;;;;;0.10;0.10;;;;;;;14.20;100.00;100625.22;4973965;28;20178;-75
2022/08/28 04:39:21;;;;;;;0.20;0.20;;;;;;;14.14;100.00;100623.78;4972172;28;20220;-74
2022/08/28 04:41:48;;;;;;;3.10;0.47;;;;;;;14.10;100.00;100622.84;4973444;28;20577;-76
2022/08/28 04:44:14;;;;;;;0.03;0.03;;;;;;;14.06;100.00;100624.66;4973317;28;20529;-74
2022/08/28 04:46:39;;;;;;;0.17;0.17;;;;;;;14.03;100.00;100630.78;4973350;28;20178;-76
2022/08/28 04:49:05;;;;;;;0.00;0.00;;;;;;;14.04;100.00;100621.44;4973374;28;20185;-78
2022/08/28 04:51:31;;;;;;;0.97;0.43;;;;;;;14.02;100.00;100629.16;4973293;28;20178;-77
2022/08/28 04:53:57;;;;;;;0.00;0.00;;;;;;;14.02;100.00;100628.34;4973118;28;20181;-76
2022/08/28 04:56:23;;;;;;;0.00;0.00;;;;;;;14.00;100.00;100629.50;4973091;28;20197;-75
2022/08/28 04:58:48;;;;;;;0.03;0.03;;;;;;;14.00;100.00;100629.50;4973112;28;20264;-74
2022/08/28 05:01:20;;;;;;;0.00;0.00;;;;;;;14.00;100.00;100634.19;4973204;28;20182;-76
2022/08/28 05:03:46;;;;;;;0.00;0.00;;;;;;;13.97;100.00;100630.16;4972793;28;20526;-79
2022/08/28 05:06:14;;;;;;;0.03;0.03;;;;;;;13.97;100.00;100632.09;4973011;28;20485;-75
2022/08/28 05:08:40;;;;;;;0.00;0.00;;;;;;;13.93;100.00;100631.16;4972893;28;20184;-76
2022/08/28 05:11:15;;;;;;;0.00;0.00;;;;;;;13.97;100.00;100632.09;4973263;28;20210;-78
2022/08/28 05:13:42;;;;;;;0.00;0.00;;;;;;;13.98;100.00;100628.22;4972549;28;20184;-75
2022/08/28 05:16:07;;;;;;;0.00;0.00;;;;;;;14.02;100.00;100636.59;4973265;28;20188;-74
2022/08/28 05:18:33;;;;;;;0.13;0.10;;;;;;;14.05;100.00;100634.03;4972795;28;20209;-75
2022/08/28 05:20:59;;;;;;;1.13;1.13;;;;;;;14.08;100.00;100638.84;4972219;28;20174;-74
2022/08/28 05:23:25;;;;;;;0.00;0.00;;;;;;;14.11;100.00;100635.44;4972478;28;20178;-74
2022/08/28 05:25:50;;;;;;;0.00;0.00;;;;;;;14.14;100.00;100645.75;4972579;28;20417;-74
2022/08/28 05:28:16;;;;;;;0.00;0.00;;;;;;;14.14;100.00;100637.53;4972637;28;20201;-76
2022/08/28 05:30:42;;;;;;;0.00;0.00;;;;;;;14.15;100.00;100638.31;4972626;28;20245;-76
2022/08/28 05:33:09;;;;;;;0.20;0.20;;;;;;;14.17;100.00;100636.84;4972421;28;20178;-76
2022/08/28 05:35:37;;;;;;;0.20;0.20;;;;;;;14.21;100.00;100640.56;4970939;28;20583;-77
2022/08/28 05:38:03;;;;;;;0.63;0.30;;;;;;;14.23;100.00;100646.53;4972235;28;20188;-77
2022/08/28 05:40:29;;;;;;;0.57;0.57;;;;;;;14.28;100.00;100640.84;4972507;28;20236;-78
2022/08/28 05:42:54;;;;;;;0.00;0.00;;;;;;;14.30;100.00;100637.75;4972493;28;20189;-75
2022/08/28 05:45:21;;;;;;;2.47;2.13;;;;;;;14.33;100.00;100644.56;4972228;28;20778;-78
2022/08/28 05:47:47;;;;;;;1.60;0.53;;;;;;;14.36;100.00;100647.44;4972261;28;20639;-76
2022/08/28 05:50:12;;;;;;;0.00;0.00;;;;;;;14.44;100.00;100651.31;4972347;28;20221;-77
2022/08/28 05:52:39;;;;;;;1.40;0.07;;;;;;;14.48;100.00;100660.50;4972123;28;20185;-77
2022/08/28 05:55:06;;;;;;;0.30;0.30;;;;;;;14.48;99.96;100655.00;4971756;28;20186;-77
2022/08/28 05:57:32;;;;;;;0.87;0.63;;;;;;;14.48;99.38;100657.75;4972160;28;20228;-75
2022/08/28 05:59:57;;;;;;;0.33;0.33;;;;;;;14.52;99.13;100661.44;4971973;28;20205;-79
2022/08/28 06:02:23;;;;;;;0.00;0.00;;;;;;;14.55;99.21;100656.09;4970960;28;20189;-79
2022/08/28 06:04:49;;;;;;;0.17;0.17;;;;;;;14.59;99.12;100661.72;4971319;28;20185;-79
2022/08/28 06:07:14;;;;;;;7.73;0.67;;;;;;;14.67;98.79;100663.63;4971924;28;20491;-77
2022/08/28 06:09:41;;;;;;;16.60;0.97;;;;;;;14.69;98.29;100672.34;4971495;28;20174;-78
2022/08/28 06:12:07;;;;;;;0.00;0.00;;;;;;;14.69;97.56;100677.84;4971565;28;20173;-75
2022/08/28 06:14:33;;;;;;;0.00;0.00;;;;;;;14.76;97.51;100680.09;4970975;28;20189;-79
2022/08/28 06:17:00;;;;;;;0.00;0.00;;;;;;;14.76;96.91;100680.88;4970927;28;20174;-78
2022/08/28 06:19:27;;;;;;;0.10;0.10;;;;;;;14.79;96.85;100684.91;4971764;28;20308;-78
2022/08/28 06:21:56;;;;;;;0.23;0.23;;;;;;;14.82;96.68;100685.03;4971761;28;20201;-78
2022/08/28 06:24:21;;;;;;;0.37;0.37;;;;;;;14.82;95.97;100679.53;4971381;28;20738;-77
2022/08/28 06:26:47;;;;;;;0.00;0.00;;;;;;;14.91;97.34;100678.69;4971739;28;20264;-77
2022/08/28 06:29:14;;;;;;;0.10;0.10;;;;;;;14.96;97.23;100686.72;4971420;28;20256;-79
2022/08/28 06:31:40;;;;;;;0.00;0.00;;;;;;;14.96;96.09;100681.22;4972881;28;20188;-77
2022/08/28 06:34:06;;;;;;;0.00;0.00;;;;;;;15.04;96.21;100683.09;4970912;28;20173;-78
2022/08/28 06:36:33;;;;;;;0.20;0.20;;;;;;;15.04;95.61;100688.59;4968548;28;20546;-77
2022/08/28 06:39:00;;;;;;;0.90;0.80;;;;;;;15.02;94.91;100685.38;4971532;28;20281;-79
2022/08/28 06:41:26;;;;;;;0.00;0.00;;;;;;;14.99;94.46;100697.06;4971495;28;20237;-80
2022/08/28 06:43:51;;;;;;;0.00;0.00;;;;;;;15.02;94.07;100702.69;4982353;28;20181;-80
2022/08/28 06:46:17;;;;;;;1.17;0.80;;;;;;;15.03;94.40;100709.00;4990937;28;20181;-80
2022/08/28 06:48:42;;;;;;;2.23;1.90;;;;;;;15.03;94.17;100712.56;4991251;28;20236;-81
2022/08/28 06:51:11;;;;;;;0.10;0.10;;;;;;;15.10;94.78;100703.78;4992952;28;20166;-79
2022/08/28 06:53:38;;;;;;;0.00;0.00;;;;;;;15.17;94.18;100704.03;4985930;28;20249;-88
2022/08/28 06:56:22;;;;;;;0.00;0.00;;;;;;;15.26;94.18;100706.75;4964517;28;20213;-80
2022/08/28 06:58:49;;;;;;;0.00;0.00;;;;;;;15.26;92.49;100707.53;4970238;28;20296;-81
2022/08/28 07:01:21;;;;;;;1.17;0.97;;;;;;;15.30;92.05;100713.97;4972899;28;20181;-84
2022/08/28 07:03:47;;;;;;;1.60;1.50;;;;;;;15.31;91.08;100712.84;4971443;28;20174;-81
2022/08/28 07:06:14;;;;;;;0.00;0.00;;;;;;;15.37;91.71;100716.22;4971472;28;20186;-87
2022/08/28 07:08:41;;;;;;;2.90;0.93;;;;;;;15.34;90.83;100716.88;4968835;28;20532;-77
2022/08/28 07:11:20;;;;;;;0.00;0.00;;;;;;;15.39;91.07;100722.97;4971006;28;20571;-77
2022/08/28 07:13:46;;;;;;;0.00;0.00;;;;;;;15.52;92.09;100723.03;4971034;28;20166;-78
2022/08/28 07:16:14;;;;;;;1.30;1.30;;;;;;;15.56;90.50;100723.97;4971036;28;20186;-76
2022/08/28 07:18:40;;;;;;;0.53;0.53;;;;;;;15.56;89.61;100722.03;4968835;28;20209;-79
2022/08/28 07:21:06;;;;;;;0.00;0.00;;;;;;;15.56;88.34;100733.03;4970900;28;20197;-76
2022/08/28 07:23:33;;;;;;;0.00;0.00;;;;;;;15.61;88.73;100721.84;4968706;28;20189;-75
2022/08/28 07:26:02;;;;;;;0.00;0.00;;;;;;;15.69;88.54;100729.22;4976987;28;20189;-79
2022/08/28 07:28:28;;;;;;;0.00;0.00;;;;;;;15.76;87.93;100723.16;4968600;28;20618;-78
2022/08/28 07:31:03;;;;;;;0.60;0.47;;;;;;;15.83;88.27;100726.16;4969600;28;20261;-78
2022/08/28 07:33:30;;;;;;;0.00;0.00;;;;;;;15.91;87.60;100721.69;4961127;28;20177;-77
2022/08/28 07:35:56;;;;;;;0.00;0.00;;;;;;;16.01;88.00;100721.28;4990281;28;20240;-78
2022/08/28 07:38:22;;;;;;;6.53;1.60;;;;;;;16.12;86.55;100729.91;4990569;28;20373;-78
2022/08/28 07:40:48;;;;;;;0.20;0.17;;;;;;;16.14;85.66;100722.09;4988381;28;20711;-77
2022/08/28 07:46:05;;;;;;;0.57;0.57;;;;;;;16.09;85.38;100738.88;4970820;28;20651;-78
2022/08/28 07:48:32;;;;;;;0.00;0.00;;;;;;;16.23;86.90;100729.13;4974396;28;20181;-77
2022/08/28 07:50:58;;;;;;;12.43;0.30;;;;;;;16.29;85.22;100721.44;4974635;28;20174;-78
2022/08/28 07:53:24;;;;;;;0.23;0.23;;;;;;;16.29;84.49;100732.47;4973243;28;20184;-77
2022/08/28 07:55:50;;;;;;;0.00;0.00;;;;;;;16.39;85.14;100731.22;4973846;28;20277;-76
2022/08/28 07:58:16;;;;;;;0.07;0.07;;;;;;;16.55;85.31;100738.47;4974030;28;20705;-78
2022/08/28 08:00:41;;;;;;;0.40;0.40;;;;;;;16.55;83.48;100743.19;4974004;28;20630;-77
2022/08/28 08:03:07;;;;;;;0.50;0.10;;;;;;;16.52;83.02;100744.69;4974205;28;20178;-78
2022/08/28 08:05:32;;;;;;;0.00;0.00;;;;;;;16.59;82.74;100739.38;4972858;28;20352;-78
2022/08/28 08:07:57;;;;;;;0.70;0.40;;;;;;;16.70;82.03;100742.53;4973922;28;20174;-77
2022/08/28 08:10:23;;;;;;;0.10;0.10;;;;;;;16.69;81.72;100751.16;4974000;28;20177;-77
2022/08/28 08:12:48;;;;;;;0.23;0.23;;;;;;;16.71;81.77;100744.13;4973872;28;20269;-77
2022/08/28 08:15:13;;;;;;;0.00;0.00;;;;;;;16.81;81.81;100745.63;4973652;28;20216;-76
2022/08/28 08:17:39;;;;;;;0.00;0.00;;;;;;;16.98;82.00;100737.09;4974015;28;20186;-76
2022/08/28 08:20:06;;;;;;;0.00;0.00;;;;;;;17.01;79.96;100741.91;4973846;28;20291;-77
2022/08/28 08:22:32;;;;;;;0.00;0.00;;;;;;;17.04;80.01;100741.22;4974039;28;20298;-78
2022/08/28 08:24:58;;;;;;;1.90;0.50;;;;;;;17.04;78.00;100743.97;4972044;28;20185;-78
2022/08/28 08:27:23;;;;;;;0.00;0.00;;;;;;;17.03;78.72;100736.84;4974072;28;20178;-78
2022/08/28 08:29:49;;;;;;;0.10;0.07;;;;;;;17.05;78.42;100734.53;4973651;28;20537;-78
2022/08/28 08:32:16;;;;;;;0.20;0.20;;;;;;;17.13;77.90;100744.66;4973838;28;20194;-79
2022/08/28 08:34:44;;;;;;;0.00;0.00;;;;;;;17.32;77.85;100743.22;4972904;28;20174;-77
2022/08/28 08:37:12;;;;;;;0.10;0.10;;;;;;;17.45;77.75;100733.75;4972766;28;20221;-78
2022/08/28 08:39:39;;;;;;;0.00;0.00;;;;;;;17.51;76.76;100737.91;4972768;28;20626;-78
2022/08/28 08:42:19;;;;;;;0.73;0.73;;;;;;;17.34;75.60;100743.69;4972547;28;20189;-78
2022/08/28 08:44:47;;;;;;;0.00;0.00;;;;;;;17.39;76.34;100735.97;4972560;28;20182;-78
2022/08/28 08:47:32;;;;;;;1.10;1.10;;;;;;;17.62;75.83;100738.19;4972347;28;20192;-78
2022/08/28 08:50:01;;;;;;;0.17;0.17;;;;;;;17.46;74.56;100738.13;4972605;28;20257;-77
2022/08/28 08:52:46;;;;;;;0.00;0.00;;;;;;;17.70;75.23;100745.56;4973287;28;20233;-78
2022/08/28 08:55:20;;;;;;;0.53;0.53;;;;;;;17.78;73.15;100745.38;4972799;28;20189;-76
2022/08/28 08:57:51;;;;;;;0.00;0.00;;;;;;;17.92;73.05;100741.41;4972667;28;20174;-77
2022/08/28 09:00:18;;;;;;;1.10;1.10;;;;;;;17.86;72.44;100742.84;4973247;28;20607;-77
2022/08/28 09:03:21;;;;;;;0.20;0.20;;;;;;;17.88;72.75;100743.28;4973075;28;20266;-78
2022/08/28 09:05:47;;;;;;;0.10;0.10;;;;;;;17.71;73.72;100742.44;4973025;28;20447;-78
2022/08/28 09:08:38;;;;;;;1.03;0.87;;;;;;;17.63;73.54;100748.88;4973055;28;20638;-77
2022/08/28 09:11:30;;;;;;;0.00;0.00;;;;;;;17.53;73.18;100757.69;4972975;28;20182;-78
2022/08/28 09:14:26;;;;;;;0.00;0.00;;;;;;;17.63;74.67;100745.31;4972693;28;20188;-78
2022/08/28 09:16:51;;;;;;;0.00;0.00;;;;;;;17.73;72.92;100739.31;4973375;28;20181;-78
2022/08/28 09:19:20;;;;;;;4.80;0.47;;;;;;;18.03;71.77;100745.28;4972697;28;20863;-78
2022/08/28 09:21:47;;;;;;;0.20;0.20;;;;;;;18.14;71.43;100749.94;4971685;28;20182;-78
2022/08/28 09:24:24;;;;;;;1.40;0.57;;;;;;;17.96;69.30;100745.91;4971238;28;20190;-78
2022/08/28 09:26:59;;;;;;;0.00;0.00;;;;;;;17.93;69.73;100741.06;4972828;28;20216;-77
2022/08/28 09:29:29;;;;;;;0.47;0.40;;;;;;;17.91;68.86;100745.34;4972703;28;20692;-77
2022/08/28 09:31:55;;;;;;;0.00;0.00;;;;;;;18.14;69.15;100743.59;4974494;28;20181;-77
2022/08/28 09:34:28;;;;;;;0.13;0.13;;;;;;;18.22;67.17;100745.38;4992142;28;20181;-78
2022/08/28 09:36:57;;;;;;;0.00;0.00;;;;;;;18.46;68.36;100747.19;4992058;28;20181;-77
2022/08/28 09:39:26;;;;;;;0.00;0.00;;;;;;;18.72;68.56;100744.72;4992051;28;20638;-77
2022/08/28 09:45:12;;;;;;;1.20;0.77;;;;;;;18.81;67.66;100755.59;4972908;28;20180;-74
2022/08/28 09:47:37;;;;;;;0.23;0.20;;;;;;;18.70;67.45;100749.00;4967327;28;20190;-77
2022/08/28 09:50:23;;;;;;;1.40;1.30;;;;;;;18.61;66.45;100754.69;4972145;28;20646;-77
2022/08/28 09:52:51;;;;;;;0.30;0.30;;;;;;;18.57;66.61;100750.22;4971623;28;20174;-76
2022/08/28 09:55:50;;;;;;;0.00;0.00;;;;;;;18.73;66.09;100746.31;4968816;28;20186;-79
2022/08/28 09:58:16;;;;;;;8.07;1.40;;;;;;;18.85;65.12;100747.38;4971120;28;20674;-76
2022/08/28 10:00:50;;;;;;;1.80;0.27;;;;;;;18.97;65.32;100745.28;4971988;28;20185;-75
2022/08/28 10:03:29;;;;;;;0.13;0.13;;;;;;;19.13;64.55;100748.03;4972074;28;20178;-72
2022/08/28 10:06:07;;;;;;;0.00;0.00;;;;;;;19.16;65.39;100747.28;4968511;28;20185;-77
2022/08/28 10:08:57;;;;;;;0.10;0.10;;;;;;;19.19;64.47;100745.75;4970434;28;20189;-77
2022/08/28 10:11:43;;;;;;;0.00;0.00;;;;;;;19.08;63.44;100747.47;4964420;28;20711;-78
2022/08/28 10:14:20;;;;;;;0.00;0.00;;;;;;;19.16;64.05;100749.25;4972023;28;20693;-76
2022/08/28 10:16:58;;;;;;;0.23;0.10;;;;;;;19.30;63.97;100750.38;4972279;28;20192;-77
2022/08/28 10:19:36;;;;;;;0.20;0.20;;;;;;;19.21;62.97;100751.75;4972226;28;20686;-77
2022/08/28 10:22:08;;;;;;;1.33;0.87;;;;;;;19.46;63.69;100755.84;4971075;28;20185;-79
2022/08/28 10:25:09;;;;;;;0.00;0.00;;;;;;;19.61;62.81;100743.94;4979238;28;20205;-78
2022/08/28 10:27:43;;;;;;;0.50;0.50;;;;;;;19.70;62.34;100745.69;4991513;28;20177;-77
2022/08/28 10:30:20;;;;;;;0.67;0.67;;;;;;;19.61;63.63;100749.47;4991572;28;20172;-78
2022/08/28 10:33:10;;;;;;;0.20;0.20;;;;;;;19.31;62.98;100754.75;4991578;28;20224;-78
2022/08/28 10:35:47;;;;;;;0.67;0.67;;;;;;;19.34;61.67;100747.66;4987814;28;20279;-78
2022/08/28 10:38:16;;;;;;;0.23;0.23;;;;;;;19.34;62.04;100744.91;4978755;28;20200;-76
2022/08/28 10:40:54;;;;;;;0.40;0.17;;;;;;;19.45;62.31;100748.72;4971836;28;20199;-76
2022/08/28 10:43:30;;;;;;;0.00;0.00;;;;;;;19.58;62.75;100744.66;4971618;28;20520;-77
2022/08/28 10:46:02;;;;;;;0.50;0.50;;;;;;;19.76;62.51;100744.22;4959252;28;20306;-76
2022/08/28 10:48:36;;;;;;;0.00;0.00;;;;;;;19.87;60.90;100748.00;4960348;28;20630;-77
2022/08/28 10:51:06;;;;;;;0.33;0.33;;;;;;;19.89;60.21;100751.19;4960180;28;20179;-76
2022/08/28 10:53:40;;;;;;;4.87;0.40;;;;;;;19.78;59.84;100748.22;4960348;28;20248;-73
2022/08/28 10:56:13;;;;;;;0.00;0.00;;;;;;;19.81;59.94;100752.22;4974813;28;20239;-72
2022/08/28 10:58:42;;;;;;;1.37;0.47;;;;;;;19.96;60.73;100743.00;4990873;28;20292;-74
2022/08/28 11:01:12;;;;;;;0.83;0.27;;;;;;;20.01;60.33;100753.81;4991453;28;20256;-74
2022/08/28 11:03:48;;;;;;;2.53;0.50;;;;;;;19.87;58.06;100748.00;4990721;28;20173;-76
2022/08/28 11:06:32;;;;;;;0.10;0.10;;;;;;;19.86;59.13;100744.44;4990860;28;20185;-76
2022/08/28 11:09:23;;;;;;;0.47;0.20;;;;;;;19.99;59.28;100744.25;4990816;28;20185;-77
2022/08/28 11:11:48;;;;;;;0.10;0.10;;;;;;;20.15;60.24;100744.97;4990131;28;20606;-75
2022/08/28 11:14:33;;;;;;;0.00;0.00;;;;;;;20.37;60.06;100746.91;4990222;28;20319;-76
2022/08/28 11:17:05;;;;;;;0.00;0.00;;;;;;;20.47;57.66;100749.13;4990920;28;20760;-76
2022/08/28 11:19:46;;;;;;;0.00;0.00;;;;;;;20.75;58.24;100762.66;4992088;28;20253;-76
2022/08/28 11:22:20;;;;;;;0.37;0.33;;;;;;;20.58;56.79;100756.84;4994644;28;20200;-76
2022/08/28 11:25:14;;;;;;;0.00;0.00;;;;;;;20.45;57.83;100759.00;4993797;28;20211;-75
2022/08/28 11:27:59;;;;;;;0.97;0.73;;;;;;;20.50;58.01;100756.69;4994000;28;20854;-75
2022/08/28 11:30:30;;;;;;;0.10;0.10;;;;;;;20.35;56.80;100754.03;4994477;28;20185;-76
2022/08/28 11:32:59;;;;;;;0.43;0.43;;;;;;;20.49;56.98;100759.84;4994243;28;20177;-77
2022/08/28 11:35:36;;;;;;;0.17;0.17;;;;;;;20.50;56.23;100762.25;4992178;28;20189;-76
2022/08/28 11:38:03;;;;;;;1.20;0.67;;;;;;;20.61;56.51;100751.31;4963829;28;20193;-72
2022/08/28 11:40:31;;;;;;;0.33;0.33;;;;;;;20.60;56.64;100755.28;4955198;28;20218;-74